sensor_id;sensor_type;location;lat;lon;timestamp;pressure;altitude;pressure_sealevel;temperature;humidity
57050;BME280;42935;50.966;16.992;2023-03-05T00:03:07;101358.62;;;0.34;100.00
57050;BME280;42935;50.966;16.992;2023-03-05T00:06:29;101346.63;;;0.06;100.00
57050;BME280;42935;50.966;16.992;2023-03-05T00:09:44;101356.12;;;0.14;100.00
57050;BME280;42935;50.966;16.992;2023-03-05T00:13:09;101354.49;;;0.13;100.00
57050;BME280;42935;50.966;16.992;2023-03-05T00:16:31;101352.04;;;0.18;100.00
57050;BME280;42935;50.966;16.992;2023-03-05T00:19:46;101342.40;;;0.18;100.00
57050;BME280;42935;50.966;16.992;2023-03-05T00:23:14;101326.54;;;0.13;100.00
57050;BME280;42935;50.966;16.992;2023-03-05T00:26:35;101340.25;;;0.31;100.00
57050;BME280;42935;50.966;16.992;2023-03-05T00:29:55;101342.10;;;0.22;100.00
57050;BME280;42935;50.966;16.992;2023-03-05T00:33:12;101326.76;;;0.11;100.00
57050;BME280;42935;50.966;16.992;2023-03-05T00:36:27;101333.95;;;-0.04;99.01
57050;BME280;42935;50.966;16.992;2023-03-05T00:39:46;101323.16;;;0.11;99.98
57050;BME280;42935;50.966;16.992;2023-03-05T00:43:06;101311.52;;;0.31;100.00
57050;BME280;42935;50.966;16.992;2023-03-05T00:46:26;101323.84;;;0.28;100.00
57050;BME280;42935;50.966;16.992;2023-03-05T00:49:41;101321.68;;;-0.07;100.00
57050;BME280;42935;50.966;16.992;2023-03-05T00:52:58;101314.16;;;-0.28;100.00
57050;BME280;42935;50.966;16.992;2023-03-05T00:56:16;101310.34;;;-0.20;100.00
57050;BME280;42935;50.966;16.992;2023-03-05T00:59:32;101300.50;;;-0.45;100.00
57050;BME280;42935;50.966;16.992;2023-03-05T01:02:49;101301.11;;;-0.37;100.00
57050;BME280;42935;50.966;16.992;2023-03-05T01:06:10;101294.79;;;-0.05;100.00
57050;BME280;42935;50.966;16.992;2023-03-05T01:09:34;101292.26;;;0.00;100.00
57050;BME280;42935;50.966;16.992;2023-03-05T01:13:02;101276.93;;;0.04;100.00
57050;BME280;42935;50.966;16.992;2023-03-05T01:16:22;101279.77;;;-0.16;100.00
57050;BME280;42935;50.966;16.992;2023-03-05T01:19:43;101285.34;;;-0.24;100.00
57050;BME280;42935;50.966;16.992;2023-03-05T01:22:59;101280.03;;;0.01;100.00
57050;BME280;42935;50.966;16.992;2023-03-05T01:26:16;101273.87;;;0.04;100.00
57050;BME280;42935;50.966;16.992;2023-03-05T01:29:31;101266.33;;;0.06;100.00
57050;BME280;42935;50.966;16.992;2023-03-05T01:32:53;101262.06;;;0.22;100.00
57050;BME280;42935;50.966;16.992;2023-03-05T01:36:13;101252.27;;;0.01;100.00
57050;BME280;42935;50.966;16.992;2023-03-05T01:39:34;101256.84;;;-0.09;100.00
57050;BME280;42935;50.966;16.992;2023-03-05T01:43:00;101247.55;;;-0.22;100.00
57050;BME280;42935;50.966;16.992;2023-03-05T01:46:24;101246.83;;;-0.12;100.00
57050;BME280;42935;50.966;16.992;2023-03-05T01:49:43;101246.52;;;-0.03;100.00
57050;BME280;42935;50.966;16.992;2023-03-05T01:53:03;101235.45;;;-0.02;100.00
57050;BME280;42935;50.966;16.992;2023-03-05T01:56:23;101244.34;;;0.06;100.00
57050;BME280;42935;50.966;16.992;2023-03-05T01:59:43;101239.02;;;-0.16;100.00
57050;BME280;42935;50.966;16.992;2023-03-05T02:03:06;101258.20;;;-0.51;100.00
57050;BME280;42935;50.966;16.992;2023-03-05T02:06:23;101249.85;;;-0.64;100.00
57050;BME280;42935;50.966;16.992;2023-03-05T02:09:53;101244.63;;;-0.62;100.00
57050;BME280;42935;50.966;16.992;2023-03-05T02:16:42;101221.85;;;-0.62;100.00
57050;BME280;42935;50.966;16.992;2023-03-05T02:20:05;101231.23;;;-0.40;100.00
57050;BME280;42935;50.966;16.992;2023-03-05T02:23:31;101229.58;;;-0.35;100.00
57050;BME280;42935;50.966;16.992;2023-03-05T02:26:50;101231.17;;;-0.65;100.00
57050;BME280;42935;50.966;16.992;2023-03-05T02:30:08;101226.98;;;-0.70;100.00
57050;BME280;42935;50.966;16.992;2023-03-05T02:33:28;101227.87;;;-0.71;100.00
57050;BME280;42935;50.966;16.992;2023-03-05T02:36:45;101227.93;;;-0.79;100.00
57050;BME280;42935;50.966;16.992;2023-03-05T02:40:10;101222.06;;;-0.82;100.00
57050;BME280;42935;50.966;16.992;2023-03-05T02:43:34;101227.91;;;-0.78;100.00
57050;BME280;42935;50.966;16.992;2023-03-05T02:47:26;101229.11;;;-0.81;100.00
57050;BME280;42935;50.966;16.992;2023-03-05T02:50:45;101227.91;;;-0.68;100.00
57050;BME280;42935;50.966;16.992;2023-03-05T02:54:01;101228.45;;;-0.70;100.00
57050;BME280;42935;50.966;16.992;2023-03-05T02:57:21;101222.51;;;-0.71;100.00
57050;BME280;42935;50.966;16.992;2023-03-05T03:00:37;101218.06;;;-0.75;100.00
57050;BME280;42935;50.966;16.992;2023-03-05T03:03:58;101208.09;;;-0.82;100.00
57050;BME280;42935;50.966;16.992;2023-03-05T03:07:17;101215.60;;;-0.81;100.00
57050;BME280;42935;50.966;16.992;2023-03-05T03:10:34;101211.56;;;-0.76;100.00
57050;BME280;42935;50.966;16.992;2023-03-05T03:13:53;101196.32;;;-0.84;100.00
57050;BME280;42935;50.966;16.992;2023-03-05T03:17:15;101184.01;;;-0.85;100.00
57050;BME280;42935;50.966;16.992;2023-03-05T03:20:37;101191.98;;;-0.59;100.00
57050;BME280;42935;50.966;16.992;2023-03-05T03:23:54;101191.41;;;-0.50;100.00
57050;BME280;42935;50.966;16.992;2023-03-05T03:27:14;101200.23;;;-0.74;100.00
57050;BME280;42935;50.966;16.992;2023-03-05T03:30:33;101186.22;;;-0.86;100.00
57050;BME280;42935;50.966;16.992;2023-03-05T03:34:26;101188.38;;;-0.91;100.00
57050;BME280;42935;50.966;16.992;2023-03-05T03:37:46;101184.52;;;-0.90;100.00
57050;BME280;42935;50.966;16.992;2023-03-05T03:41:07;101158.25;;;-0.80;100.00
57050;BME280;42935;50.966;16.992;2023-03-05T03:44:23;101164.61;;;-0.61;100.00
57050;BME280;42935;50.966;16.992;2023-03-05T03:47:42;101167.05;;;-0.58;100.00
57050;BME280;42935;50.966;16.992;2023-03-05T03:51:03;101163.80;;;-0.69;100.00
57050;BME280;42935;50.966;16.992;2023-03-05T03:54:22;101160.81;;;-0.97;100.00
57050;BME280;42935;50.966;16.992;2023-03-05T03:57:41;101154.62;;;-0.98;100.00
57050;BME280;42935;50.966;16.992;2023-03-05T04:00:56;101140.72;;;-1.13;100.00
57050;BME280;42935;50.966;16.992;2023-03-05T04:04:14;101145.39;;;-1.02;100.00
57050;BME280;42935;50.966;16.992;2023-03-05T04:07:39;101139.66;;;-1.05;100.00
57050;BME280;42935;50.966;16.992;2023-03-05T04:10:56;101133.93;;;-1.18;100.00
57050;BME280;42935;50.966;16.992;2023-03-05T04:14:13;101139.55;;;-1.21;100.00
57050;BME280;42935;50.966;16.992;2023-03-05T04:17:35;101120.41;;;-1.18;100.00
57050;BME280;42935;50.966;16.992;2023-03-05T04:20:55;101122.85;;;-1.10;100.00
57050;BME280;42935;50.966;16.992;2023-03-05T04:24:15;101119.05;;;-1.15;100.00
57050;BME280;42935;50.966;16.992;2023-03-05T04:27:33;101115.87;;;-1.28;100.00
57050;BME280;42935;50.966;16.992;2023-03-05T04:30:54;101097.77;;;-1.30;100.00
57050;BME280;42935;50.966;16.992;2023-03-05T04:34:14;101095.29;;;-1.18;100.00
57050;BME280;42935;50.966;16.992;2023-03-05T04:37:33;101099.95;;;-1.20;100.00
57050;BME280;42935;50.966;16.992;2023-03-05T04:40:54;101088.54;;;-1.24;100.00
57050;BME280;42935;50.966;16.992;2023-03-05T04:44:14;101094.73;;;-1.33;100.00
57050;BME280;42935;50.966;16.992;2023-03-05T04:47:37;101077.28;;;-1.39;100.00
57050;BME280;42935;50.966;16.992;2023-03-05T04:50:58;101083.42;;;-1.22;100.00
57050;BME280;42935;50.966;16.992;2023-03-05T04:54:18;101078.29;;;-1.19;100.00
57050;BME280;42935;50.966;16.992;2023-03-05T04:57:35;101083.84;;;-1.18;100.00
57050;BME280;42935;50.966;16.992;2023-03-05T05:01:00;101073.02;;;-1.20;100.00
57050;BME280;42935;50.966;16.992;2023-03-05T05:04:18;101070.90;;;-1.13;100.00
57050;BME280;42935;50.966;16.992;2023-03-05T05:07:34;101067.06;;;-1.18;100.00
57050;BME280;42935;50.966;16.992;2023-03-05T05:10:54;101079.23;;;-1.15;100.00
57050;BME280;42935;50.966;16.992;2023-03-05T05:14:14;101063.77;;;-1.28;100.00
57050;BME280;42935;50.966;16.992;2023-03-05T05:17:34;101069.42;;;-1.24;100.00
57050;BME280;42935;50.966;16.992;2023-03-05T05:20:56;101072.52;;;-1.19;100.00
57050;BME280;42935;50.966;16.992;2023-03-05T05:24:14;101068.35;;;-1.19;100.00
57050;BME280;42935;50.966;16.992;2023-03-05T05:27:33;101063.70;;;-1.20;100.00
57050;BME280;42935;50.966;16.992;2023-03-05T05:30:50;101062.09;;;-1.17;100.00
57050;BME280;42935;50.966;16.992;2023-03-05T05:34:06;101061.90;;;-1.15;100.00
57050;BME280;42935;50.966;16.992;2023-03-05T05:37:21;101069.25;;;-1.20;100.00
57050;BME280;42935;50.966;16.992;2023-03-05T05:40:37;101048.37;;;-1.25;100.00
57050;BME280;42935;50.966;16.992;2023-03-05T05:43:54;101052.59;;;-1.22;100.00
57050;BME280;42935;50.966;16.992;2023-03-05T05:47:15;101061.76;;;-1.13;100.00
57050;BME280;42935;50.966;16.992;2023-03-05T05:50:32;101063.38;;;-1.10;100.00
57050;BME280;42935;50.966;16.992;2023-03-05T05:53:52;101058.84;;;-1.13;100.00
57050;BME280;42935;50.966;16.992;2023-03-05T05:57:16;101049.27;;;-1.21;100.00
57050;BME280;42935;50.966;16.992;2023-03-05T06:00:32;101058.41;;;-1.12;100.00
57050;BME280;42935;50.966;16.992;2023-03-05T06:03:52;101056.62;;;-1.11;100.00
57050;BME280;42935;50.966;16.992;2023-03-05T06:07:14;101057.35;;;-1.15;100.00
57050;BME280;42935;50.966;16.992;2023-03-05T06:10:32;101045.70;;;-1.23;100.00
57050;BME280;42935;50.966;16.992;2023-03-05T06:13:49;101044.10;;;-1.17;100.00
57050;BME280;42935;50.966;16.992;2023-03-05T06:17:09;101046.58;;;-1.17;100.00
57050;BME280;42935;50.966;16.992;2023-03-05T06:20:33;101041.68;;;-1.13;100.00
57050;BME280;42935;50.966;16.992;2023-03-05T06:23:50;101040.77;;;-1.16;100.00
57050;BME280;42935;50.966;16.992;2023-03-05T06:27:08;101040.13;;;-1.14;100.00
57050;BME280;42935;50.966;16.992;2023-03-05T06:30:26;101048.30;;;-1.10;100.00
57050;BME280;42935;50.966;16.992;2023-03-05T06:33:43;101047.13;;;-1.08;100.00
57050;BME280;42935;50.966;16.992;2023-03-05T06:37:04;101045.21;;;-0.97;100.00
57050;BME280;42935;50.966;16.992;2023-03-05T06:40:24;101037.59;;;-0.90;100.00
57050;BME280;42935;50.966;16.992;2023-03-05T06:43:44;101046.41;;;-0.78;100.00
57050;BME280;42935;50.966;16.992;2023-03-05T06:47:06;101031.17;;;-0.80;100.00
57050;BME280;42935;50.966;16.992;2023-03-05T06:50:26;101037.87;;;-0.70;100.00
57050;BME280;42935;50.966;16.992;2023-03-05T06:53:41;101027.83;;;-0.71;100.00
57050;BME280;42935;50.966;16.992;2023-03-05T06:57:05;101048.48;;;-0.56;100.00
57050;BME280;42935;50.966;16.992;2023-03-05T07:00:23;101047.52;;;-0.47;100.00
57050;BME280;42935;50.966;16.992;2023-03-05T07:03:55;101044.87;;;-0.38;100.00
57050;BME280;42935;50.966;16.992;2023-03-05T07:07:21;101041.21;;;-0.32;100.00
57050;BME280;42935;50.966;16.992;2023-03-05T07:10:43;101050.29;;;-0.26;100.00
57050;BME280;42935;50.966;16.992;2023-03-05T07:14:02;101046.06;;;-0.18;100.00
57050;BME280;42935;50.966;16.992;2023-03-05T07:17:20;101041.30;;;-0.22;100.00
57050;BME280;42935;50.966;16.992;2023-03-05T07:20:39;101041.83;;;-0.08;100.00
57050;BME280;42935;50.966;16.992;2023-03-05T07:24:00;101050.15;;;0.01;100.00
57050;BME280;42935;50.966;16.992;2023-03-05T07:27:18;101048.23;;;0.01;100.00
57050;BME280;42935;50.966;16.992;2023-03-05T07:30:38;101049.57;;;0.02;100.00
57050;BME280;42935;50.966;16.992;2023-03-05T07:34:05;101035.31;;;-0.02;100.00
57050;BME280;42935;50.966;16.992;2023-03-05T07:37:28;101038.50;;;0.00;100.00
57050;BME280;42935;50.966;16.992;2023-03-05T07:40:46;101039.95;;;0.11;100.00
57050;BME280;42935;50.966;16.992;2023-03-05T07:44:05;101044.42;;;0.11;100.00
57050;BME280;42935;50.966;16.992;2023-03-05T07:47:21;101025.46;;;0.08;99.30
57050;BME280;42935;50.966;16.992;2023-03-05T07:50:39;101035.32;;;0.18;97.74
57050;BME280;42935;50.966;16.992;2023-03-05T07:53:59;101040.13;;;0.16;92.52
57050;BME280;42935;50.966;16.992;2023-03-05T07:57:18;101029.89;;;0.13;95.37
57050;BME280;42935;50.966;16.992;2023-03-05T08:00:39;101036.85;;;0.29;96.28
57050;BME280;42935;50.966;16.992;2023-03-05T08:03:56;101031.75;;;0.28;93.30
57050;BME280;42935;50.966;16.992;2023-03-05T08:07:19;101033.14;;;0.31;94.93
57050;BME280;42935;50.966;16.992;2023-03-05T08:10:36;101034.79;;;0.25;94.10
57050;BME280;42935;50.966;16.992;2023-03-05T08:13:56;101020.37;;;0.05;92.58
57050;BME280;42935;50.966;16.992;2023-03-05T08:17:18;101040.45;;;0.17;94.66
57050;BME280;42935;50.966;16.992;2023-03-05T08:20:35;101043.84;;;0.21;97.25
57050;BME280;42935;50.966;16.992;2023-03-05T08:23:52;101045.92;;;0.13;99.17
57050;BME280;42935;50.966;16.992;2023-03-05T08:27:09;101031.05;;;0.20;100.00
57050;BME280;42935;50.966;16.992;2023-03-05T08:30:26;101043.35;;;0.33;100.00
57050;BME280;42935;50.966;16.992;2023-03-05T08:33:45;101041.52;;;0.32;100.00
57050;BME280;42935;50.966;16.992;2023-03-05T08:37:02;101034.34;;;0.07;100.00
57050;BME280;42935;50.966;16.992;2023-03-05T08:40:23;101033.77;;;0.16;100.00
57050;BME280;42935;50.966;16.992;2023-03-05T08:43:40;101041.54;;;0.10;100.00
57050;BME280;42935;50.966;16.992;2023-03-05T08:47:02;101041.88;;;0.17;100.00
57050;BME280;42935;50.966;16.992;2023-03-05T08:50:23;101034.56;;;0.07;100.00
57050;BME280;42935;50.966;16.992;2023-03-05T08:53:44;101035.97;;;0.18;100.00
57050;BME280;42935;50.966;16.992;2023-03-05T08:57:02;101039.41;;;0.12;100.00
57050;BME280;42935;50.966;16.992;2023-03-05T09:00:21;101022.69;;;-0.02;100.00
57050;BME280;42935;50.966;16.992;2023-03-05T09:03:39;101032.81;;;0.06;100.00
57050;BME280;42935;50.966;16.992;2023-03-05T09:06:56;101027.00;;;-0.03;100.00
57050;BME280;42935;50.966;16.992;2023-03-05T09:10:16;101048.01;;;-0.28;99.98
57050;BME280;42935;50.966;16.992;2023-03-05T09:13:36;101054.59;;;-0.51;100.00
57050;BME280;42935;50.966;16.992;2023-03-05T09:16:56;101045.46;;;-0.87;100.00
57050;BME280;42935;50.966;16.992;2023-03-05T09:20:11;101043.40;;;-0.84;100.00
57050;BME280;42935;50.966;16.992;2023-03-05T09:23:31;101023.44;;;-0.84;100.00
57050;BME280;42935;50.966;16.992;2023-03-05T09:26:48;101038.16;;;-0.58;100.00
57050;BME280;42935;50.966;16.992;2023-03-05T09:30:06;101041.97;;;-0.52;100.00
57050;BME280;42935;50.966;16.992;2023-03-05T09:33:25;101027.00;;;-0.47;100.00
57050;BME280;42935;50.966;16.992;2023-03-05T09:36:42;101028.61;;;-0.23;100.00
57050;BME280;42935;50.966;16.992;2023-03-05T09:40:04;101031.04;;;-0.12;100.00
57050;BME280;42935;50.966;16.992;2023-03-05T09:43:30;101023.09;;;-0.01;100.00
57050;BME280;42935;50.966;16.992;2023-03-05T09:47:07;101021.46;;;0.01;100.00
57050;BME280;42935;50.966;16.992;2023-03-05T09:53:56;101001.80;;;0.33;100.00
57050;BME280;42935;50.966;16.992;2023-03-05T10:00:53;100990.93;;;0.86;100.00
57050;BME280;42935;50.966;16.992;2023-03-05T10:04:18;100991.80;;;1.13;100.00
57050;BME280;42935;50.966;16.992;2023-03-05T10:07:40;100974.10;;;1.24;94.26
57050;BME280;42935;50.966;16.992;2023-03-05T10:19:20;100957.67;;;1.31;80.48
57050;BME280;42935;50.966;16.992;2023-03-05T10:36:47;100952.30;;;1.33;85.18
57050;BME280;42935;50.966;16.992;2023-03-05T10:43:47;100936.68;;;1.30;83.38
57050;BME280;42935;50.966;16.992;2023-03-05T10:47:23;100942.72;;;1.24;84.77
57050;BME280;42935;50.966;16.992;2023-03-05T10:54:11;100939.09;;;1.18;87.29
57050;BME280;42935;50.966;16.992;2023-03-05T10:57:33;100925.53;;;1.16;91.24
57050;BME280;42935;50.966;16.992;2023-03-05T11:01:03;100930.73;;;1.20;91.59
57050;BME280;42935;50.966;16.992;2023-03-05T11:04:27;100924.02;;;1.16;91.06
57050;BME280;42935;50.966;16.992;2023-03-05T11:07:52;100919.72;;;1.28;88.93
57050;BME280;42935;50.966;16.992;2023-03-05T11:11:15;100921.15;;;1.44;86.15
57050;BME280;42935;50.966;16.992;2023-03-05T11:14:35;100923.67;;;1.35;82.83
57050;BME280;42935;50.966;16.992;2023-03-05T11:21:25;100931.95;;;1.34;88.47
57050;BME280;42935;50.966;16.992;2023-03-05T11:24:44;100909.99;;;1.23;88.93
57050;BME280;42935;50.966;16.992;2023-03-05T11:28:16;100921.34;;;1.35;88.54
57050;BME280;42935;50.966;16.992;2023-03-05T11:31:32;100903.29;;;1.29;85.73
57050;BME280;42935;50.966;16.992;2023-03-05T11:34:56;100891.15;;;1.48;88.29
57050;BME280;42935;50.966;16.992;2023-03-05T11:38:24;100890.34;;;1.65;86.79
57050;BME280;42935;50.966;16.992;2023-03-05T11:41:55;100889.88;;;1.88;85.06
57050;BME280;42935;50.966;16.992;2023-03-05T11:45:16;100866.91;;;1.82;83.94
57050;BME280;42935;50.966;16.992;2023-03-05T11:48:36;100877.54;;;1.96;85.97
57050;BME280;42935;50.966;16.992;2023-03-05T11:59:02;100856.13;;;1.92;82.54
57050;BME280;42935;50.966;16.992;2023-03-05T12:02:22;100868.23;;;2.15;82.63
57050;BME280;42935;50.966;16.992;2023-03-05T12:05:51;100857.27;;;1.94;81.53
57050;BME280;42935;50.966;16.992;2023-03-05T12:09:23;100848.62;;;1.77;81.53
57050;BME280;42935;50.966;16.992;2023-03-05T12:12:52;100851.58;;;1.94;81.83
57050;BME280;42935;50.966;16.992;2023-03-05T12:16:22;100839.70;;;2.05;82.38
57050;BME280;42935;50.966;16.992;2023-03-05T12:23:16;100829.08;;;2.13;81.39
57050;BME280;42935;50.966;16.992;2023-03-05T12:30:01;100835.09;;;2.10;79.39
57050;BME280;42935;50.966;16.992;2023-03-05T12:33:31;100817.10;;;2.06;79.09
57050;BME280;42935;50.966;16.992;2023-03-05T12:36:47;100814.99;;;2.09;77.38
57050;BME280;42935;50.966;16.992;2023-03-05T12:43:37;100820.28;;;2.24;79.02
57050;BME280;42935;50.966;16.992;2023-03-05T12:57:31;100803.28;;;1.99;76.37
57050;BME280;42935;50.966;16.992;2023-03-05T13:04:28;100811.48;;;2.04;75.87
57050;BME280;42935;50.966;16.992;2023-03-05T13:07:49;100795.95;;;1.89;75.63
57050;BME280;42935;50.966;16.992;2023-03-05T13:11:17;100800.06;;;2.24;78.35
57050;BME280;42935;50.966;16.992;2023-03-05T13:14:44;100794.34;;;2.18;75.84
57050;BME280;42935;50.966;16.992;2023-03-05T13:18:35;100797.02;;;2.11;75.88
57050;BME280;42935;50.966;16.992;2023-03-05T13:22:01;100811.45;;;2.20;76.65
57050;BME280;42935;50.966;16.992;2023-03-05T13:25:19;100786.26;;;1.94;76.60
57050;BME280;42935;50.966;16.992;2023-03-05T13:28:38;100798.85;;;2.02;76.25
57050;BME280;42935;50.966;16.992;2023-03-05T13:32:00;100807.18;;;2.15;77.95
57050;BME280;42935;50.966;16.992;2023-03-05T13:35:19;100787.42;;;2.13;77.88
57050;BME280;42935;50.966;16.992;2023-03-05T13:38:43;100794.09;;;2.28;79.74
57050;BME280;42935;50.966;16.992;2023-03-05T13:42:04;100806.61;;;2.12;79.31
57050;BME280;42935;50.966;16.992;2023-03-05T13:45:29;100817.66;;;1.79;93.89
57050;BME280;42935;50.966;16.992;2023-03-05T13:48:47;100824.16;;;1.40;100.00
57050;BME280;42935;50.966;16.992;2023-03-05T13:52:07;100821.49;;;1.05;100.00
57050;BME280;42935;50.966;16.992;2023-03-05T13:55:27;100838.59;;;0.50;100.00
57050;BME280;42935;50.966;16.992;2023-03-05T13:59:20;100859.88;;;-0.20;100.00
57050;BME280;42935;50.966;16.992;2023-03-05T14:02:41;100859.74;;;-0.63;100.00
57050;BME280;42935;50.966;16.992;2023-03-05T14:06:09;100842.84;;;-0.88;100.00
57050;BME280;42935;50.966;16.992;2023-03-05T14:13:00;100824.72;;;-0.91;100.00
57050;BME280;42935;50.966;16.992;2023-03-05T14:16:24;100836.98;;;-0.77;100.00
57050;BME280;42935;50.966;16.992;2023-03-05T14:19:50;100815.25;;;-0.71;100.00
57050;BME280;42935;50.966;16.992;2023-03-05T14:30:13;100812.55;;;-0.45;100.00
57050;BME280;42935;50.966;16.992;2023-03-05T14:33:35;100804.99;;;-0.49;100.00
57050;BME280;42935;50.966;16.992;2023-03-05T14:37:04;100810.01;;;-0.38;100.00
57050;BME280;42935;50.966;16.992;2023-03-05T14:40:30;100801.57;;;-0.40;100.00
57050;BME280;42935;50.966;16.992;2023-03-05T14:43:48;100806.08;;;-0.33;100.00
57050;BME280;42935;50.966;16.992;2023-03-05T14:47:10;100809.40;;;-0.16;100.00
57050;BME280;42935;50.966;16.992;2023-03-05T14:54:00;100805.08;;;-0.08;100.00
57050;BME280;42935;50.966;16.992;2023-03-05T14:57:26;100799.09;;;0.03;100.00
57050;BME280;42935;50.966;16.992;2023-03-05T15:00:43;100800.07;;;0.10;100.00
57050;BME280;42935;50.966;16.992;2023-03-05T15:04:03;100802.79;;;0.10;100.00
57050;BME280;42935;50.966;16.992;2023-03-05T15:07:30;100811.64;;;0.05;100.00
57050;BME280;42935;50.966;16.992;2023-03-05T15:10:48;100806.23;;;0.04;100.00
57050;BME280;42935;50.966;16.992;2023-03-05T15:14:10;100801.48;;;0.03;100.00
57050;BME280;42935;50.966;16.992;2023-03-05T15:17:35;100799.73;;;0.11;100.00
57050;BME280;42935;50.966;16.992;2023-03-05T15:20:54;100801.00;;;0.14;100.00
57050;BME280;42935;50.966;16.992;2023-03-05T15:24:14;100786.33;;;0.03;100.00
57050;BME280;42935;50.966;16.992;2023-03-05T15:27:34;100795.05;;;0.11;100.00
57050;BME280;42935;50.966;16.992;2023-03-05T15:30:49;100794.30;;;0.13;100.00
57050;BME280;42935;50.966;16.992;2023-03-05T15:34:07;100794.09;;;0.07;100.00
57050;BME280;42935;50.966;16.992;2023-03-05T15:37:24;100774.84;;;-0.08;100.00
57050;BME280;42935;50.966;16.992;2023-03-05T15:40:50;100788.72;;;0.02;100.00
57050;BME280;42935;50.966;16.992;2023-03-05T15:44:09;100787.47;;;-0.02;100.00
57050;BME280;42935;50.966;16.992;2023-03-05T15:47:26;100782.23;;;0.04;100.00
57050;BME280;42935;50.966;16.992;2023-03-05T15:51:17;100780.74;;;-0.02;100.00
57050;BME280;42935;50.966;16.992;2023-03-05T15:54:38;100781.98;;;-0.10;100.00
57050;BME280;42935;50.966;16.992;2023-03-05T15:57:57;100786.28;;;-0.03;100.00
57050;BME280;42935;50.966;16.992;2023-03-05T16:01:17;100782.23;;;-0.04;100.00
57050;BME280;42935;50.966;16.992;2023-03-05T16:04:33;100780.40;;;0.03;100.00
57050;BME280;42935;50.966;16.992;2023-03-05T16:07:54;100783.30;;;0.04;100.00
57050;BME280;42935;50.966;16.992;2023-03-05T16:11:17;100781.24;;;-0.20;100.00
57050;BME280;42935;50.966;16.992;2023-03-05T16:14:35;100789.31;;;-0.13;100.00
57050;BME280;42935;50.966;16.992;2023-03-05T16:18:03;100786.09;;;-0.19;100.00
57050;BME280;42935;50.966;16.992;2023-03-05T16:21:23;100775.91;;;-0.02;100.00
57050;BME280;42935;50.966;16.992;2023-03-05T16:24:42;100751.73;;;-0.29;100.00
57050;BME280;42935;50.966;16.992;2023-03-05T16:28:32;100773.20;;;-0.02;100.00
57050;BME280;42935;50.966;16.992;2023-03-05T16:32:19;100757.28;;;0.13;100.00
57050;BME280;42935;50.966;16.992;2023-03-05T16:35:43;100751.49;;;0.08;100.00
57050;BME280;42935;50.966;16.992;2023-03-05T16:39:31;100766.34;;;0.08;100.00
57050;BME280;42935;50.966;16.992;2023-03-05T16:43:21;100760.80;;;0.07;100.00
57050;BME280;42935;50.966;16.992;2023-03-05T16:47:19;100757.79;;;0.13;100.00
57050;BME280;42935;50.966;16.992;2023-03-05T16:51:10;100755.48;;;0.35;100.00
57050;BME280;42935;50.966;16.992;2023-03-05T16:54:30;100752.47;;;0.43;100.00
57050;BME280;42935;50.966;16.992;2023-03-05T16:57:58;100751.97;;;0.56;100.00
57050;BME280;42935;50.966;16.992;2023-03-05T17:01:19;100755.07;;;0.28;100.00
57050;BME280;42935;50.966;16.992;2023-03-05T17:04:44;100766.12;;;-0.12;100.00
57050;BME280;42935;50.966;16.992;2023-03-05T17:08:07;100771.30;;;-0.14;100.00
57050;BME280;42935;50.966;16.992;2023-03-05T17:11:25;100776.09;;;-0.37;100.00
57050;BME280;42935;50.966;16.992;2023-03-05T17:14:52;100776.28;;;-0.13;100.00
57050;BME280;42935;50.966;16.992;2023-03-05T17:18:16;100769.62;;;-0.15;100.00
57050;BME280;42935;50.966;16.992;2023-03-05T17:21:40;100781.05;;;-0.21;100.00
57050;BME280;42935;50.966;16.992;2023-03-05T17:25:04;100778.53;;;-0.29;100.00
57050;BME280;42935;50.966;16.992;2023-03-05T17:28:21;100784.08;;;-0.40;100.00
57050;BME280;42935;50.966;16.992;2023-03-05T17:31:41;100783.65;;;-0.41;100.00
57050;BME280;42935;50.966;16.992;2023-03-05T17:35:35;100789.39;;;-0.27;100.00
57050;BME280;42935;50.966;16.992;2023-03-05T17:39:02;100801.30;;;-0.29;100.00
57050;BME280;42935;50.966;16.992;2023-03-05T17:42:26;100797.34;;;-0.36;100.00
57050;BME280;42935;50.966;16.992;2023-03-05T17:45:49;100793.34;;;-0.35;100.00
57050;BME280;42935;50.966;16.992;2023-03-05T17:49:13;100806.46;;;-0.24;100.00
57050;BME280;42935;50.966;16.992;2023-03-05T17:52:34;100805.05;;;-0.30;100.00
57050;BME280;42935;50.966;16.992;2023-03-05T17:55:56;100802.32;;;-0.37;100.00
57050;BME280;42935;50.966;16.992;2023-03-05T17:59:19;100804.68;;;-0.40;100.00
57050;BME280;42935;50.966;16.992;2023-03-05T18:02:39;100795.28;;;-0.35;100.00
57050;BME280;42935;50.966;16.992;2023-03-05T18:06:06;100802.90;;;-0.36;100.00
57050;BME280;42935;50.966;16.992;2023-03-05T18:09:31;100802.64;;;-0.26;100.00
57050;BME280;42935;50.966;16.992;2023-03-05T18:12:52;100807.16;;;-0.32;100.00
57050;BME280;42935;50.966;16.992;2023-03-05T18:16:15;100799.54;;;-0.26;100.00
57050;BME280;42935;50.966;16.992;2023-03-05T18:19:36;100804.91;;;-0.32;100.00
57050;BME280;42935;50.966;16.992;2023-03-05T18:22:56;100797.04;;;-0.31;100.00
57050;BME280;42935;50.966;16.992;2023-03-05T18:26:11;100798.06;;;-0.35;100.00
57050;BME280;42935;50.966;16.992;2023-03-05T18:29:35;100801.91;;;-0.34;100.00
57050;BME280;42935;50.966;16.992;2023-03-05T18:32:55;100804.67;;;-0.41;100.00
57050;BME280;42935;50.966;16.992;2023-03-05T18:36:12;100796.87;;;-0.50;100.00
57050;BME280;42935;50.966;16.992;2023-03-05T18:39:40;100803.02;;;-0.54;100.00
57050;BME280;42935;50.966;16.992;2023-03-05T18:42:56;100803.47;;;-0.60;100.00
57050;BME280;42935;50.966;16.992;2023-03-05T18:46:17;100799.91;;;-1.25;100.00